sensor_id;sensor_type;location;lat;lon;timestamp;P1;durP1;ratioP1;P2;durP2;ratioP2
55372;SDS011;41249;47.838;16.490;2023-02-11T00:01:48;17.58;;;6.55;;
55372;SDS011;41249;47.838;16.490;2023-02-11T00:04:14;12.30;;;7.35;;
55372;SDS011;41249;47.838;16.490;2023-02-11T00:06:41;17.60;;;8.40;;
55372;SDS011;41249;47.838;16.490;2023-02-11T00:09:08;17.08;;;7.53;;
55372;SDS011;41249;47.838;16.490;2023-02-11T00:11:35;16.70;;;7.65;;
55372;SDS011;41249;47.838;16.490;2023-02-11T00:14:03;15.18;;;6.72;;
55372;SDS011;41249;47.838;16.490;2023-02-11T00:16:33;14.30;;;7.55;;
55372;SDS011;41249;47.838;16.490;2023-02-11T00:19:01;12.57;;;6.47;;
55372;SDS011;41249;47.838;16.490;2023-02-11T00:21:28;13.77;;;7.28;;
55372;SDS011;41249;47.838;16.490;2023-02-11T00:23:55;16.38;;;6.07;;
55372;SDS011;41249;47.838;16.490;2023-02-11T00:26:26;11.93;;;5.90;;
55372;SDS011;41249;47.838;16.490;2023-02-11T00:28:57;12.90;;;7.07;;
55372;SDS011;41249;47.838;16.490;2023-02-11T00:31:24;19.15;;;8.00;;
55372;SDS011;41249;47.838;16.490;2023-02-11T00:33:52;17.55;;;8.23;;
55372;SDS011;41249;47.838;16.490;2023-02-11T00:36:23;13.27;;;6.13;;
55372;SDS011;41249;47.838;16.490;2023-02-11T00:38:52;16.73;;;6.28;;
55372;SDS011;41249;47.838;16.490;2023-02-11T00:41:19;17.95;;;8.68;;
55372;SDS011;41249;47.838;16.490;2023-02-11T00:43:46;15.02;;;7.15;;
55372;SDS011;41249;47.838;16.490;2023-02-11T00:46:14;14.15;;;7.13;;
55372;SDS011;41249;47.838;16.490;2023-02-11T00:48:41;14.55;;;7.57;;
55372;SDS011;41249;47.838;16.490;2023-02-11T00:51:08;20.88;;;8.38;;
55372;SDS011;41249;47.838;16.490;2023-02-11T00:53:35;14.73;;;7.35;;
55372;SDS011;41249;47.838;16.490;2023-02-11T00:56:02;17.88;;;8.75;;
55372;SDS011;41249;47.838;16.490;2023-02-11T00:58:29;14.18;;;7.00;;
55372;SDS011;41249;47.838;16.490;2023-02-11T01:00:56;16.15;;;7.80;;
55372;SDS011;41249;47.838;16.490;2023-02-11T01:03:23;14.43;;;7.32;;
55372;SDS011;41249;47.838;16.490;2023-02-11T01:05:49;16.27;;;8.65;;
55372;SDS011;41249;47.838;16.490;2023-02-11T01:08:16;15.95;;;7.72;;
55372;SDS011;41249;47.838;16.490;2023-02-11T01:10:43;15.32;;;7.50;;
55372;SDS011;41249;47.838;16.490;2023-02-11T01:13:10;13.88;;;6.72;;
55372;SDS011;41249;47.838;16.490;2023-02-11T01:15:36;11.02;;;4.43;;
55372;SDS011;41249;47.838;16.490;2023-02-11T01:18:04;15.02;;;6.97;;
55372;SDS011;41249;47.838;16.490;2023-02-11T01:20:30;11.00;;;4.88;;
55372;SDS011;41249;47.838;16.490;2023-02-11T01:22:57;13.73;;;6.82;;
55372;SDS011;41249;47.838;16.490;2023-02-11T01:25:24;11.05;;;5.30;;
55372;SDS011;41249;47.838;16.490;2023-02-11T01:27:50;13.88;;;6.07;;
55372;SDS011;41249;47.838;16.490;2023-02-11T01:30:17;10.38;;;5.15;;
55372;SDS011;41249;47.838;16.490;2023-02-11T01:32:43;12.68;;;6.45;;
55372;SDS011;41249;47.838;16.490;2023-02-11T01:35:10;17.58;;;5.57;;
55372;SDS011;41249;47.838;16.490;2023-02-11T01:37:37;12.35;;;6.00;;
55372;SDS011;41249;47.838;16.490;2023-02-11T01:40:04;9.10;;;4.78;;
55372;SDS011;41249;47.838;16.490;2023-02-11T01:42:33;13.48;;;7.50;;
55372;SDS011;41249;47.838;16.490;2023-02-11T01:45:00;14.40;;;7.50;;
55372;SDS011;41249;47.838;16.490;2023-02-11T01:47:47;9.45;;;5.07;;
55372;SDS011;41249;47.838;16.490;2023-02-11T01:50:13;14.57;;;6.90;;
55372;SDS011;41249;47.838;16.490;2023-02-11T01:52:40;14.38;;;6.50;;
55372;SDS011;41249;47.838;16.490;2023-02-11T01:55:09;19.08;;;8.88;;
55372;SDS011;41249;47.838;16.490;2023-02-11T01:57:58;12.93;;;6.05;;
55372;SDS011;41249;47.838;16.490;2023-02-11T02:00:29;14.82;;;6.60;;
55372;SDS011;41249;47.838;16.490;2023-02-11T02:03:35;12.65;;;6.40;;
55372;SDS011;41249;47.838;16.490;2023-02-11T02:05:57;11.68;;;5.30;;
55372;SDS011;41249;47.838;16.490;2023-02-11T02:11:12;16.20;;;6.85;;
55372;SDS011;41249;47.838;16.490;2023-02-11T02:13:38;16.25;;;6.13;;
55372;SDS011;41249;47.838;16.490;2023-02-11T02:16:06;19.20;;;9.40;;
55372;SDS011;41249;47.838;16.490;2023-02-11T02:18:47;14.32;;;6.57;;
55372;SDS011;41249;47.838;16.490;2023-02-11T02:21:26;16.35;;;7.10;;
55372;SDS011;41249;47.838;16.490;2023-02-11T02:35:10;17.30;;;9.00;;
55372;SDS011;41249;47.838;16.490;2023-02-11T02:37:41;20.95;;;9.80;;
55372;SDS011;41249;47.838;16.490;2023-02-11T02:40:17;20.42;;;10.38;;
55372;SDS011;41249;47.838;16.490;2023-02-11T02:42:48;21.00;;;10.00;;
55372;SDS011;41249;47.838;16.490;2023-02-11T02:45:16;22.13;;;9.07;;
55372;SDS011;41249;47.838;16.490;2023-02-11T02:47:44;11.52;;;5.88;;
55372;SDS011;41249;47.838;16.490;2023-02-11T02:50:11;9.80;;;5.10;;
55372;SDS011;41249;47.838;16.490;2023-02-11T03:01:01;13.57;;;6.63;;
55372;SDS011;41249;47.838;16.490;2023-02-11T03:03:35;23.40;;;9.52;;
55372;SDS011;41249;47.838;16.490;2023-02-11T03:08:49;22.63;;;10.32;;
55372;SDS011;41249;47.838;16.490;2023-02-11T03:11:22;12.90;;;6.55;;
55372;SDS011;41249;47.838;16.490;2023-02-11T03:13:51;10.60;;;5.55;;
55372;SDS011;41249;47.838;16.490;2023-02-11T03:16:24;22.40;;;9.60;;
55372;SDS011;41249;47.838;16.490;2023-02-11T03:18:57;18.42;;;9.65;;
55372;SDS011;41249;47.838;16.490;2023-02-11T03:21:29;18.75;;;9.45;;
55372;SDS011;41249;47.838;16.490;2023-02-11T03:23:59;23.02;;;10.32;;
55372;SDS011;41249;47.838;16.490;2023-02-11T03:26:42;19.35;;;10.55;;
55372;SDS011;41249;47.838;16.490;2023-02-11T03:34:45;20.27;;;10.85;;
55372;SDS011;41249;47.838;16.490;2023-02-11T03:37:23;18.90;;;10.45;;
55372;SDS011;41249;47.838;16.490;2023-02-11T03:39:59;24.75;;;12.32;;
55372;SDS011;41249;47.838;16.490;2023-02-11T03:42:33;21.92;;;10.57;;
55372;SDS011;41249;47.838;16.490;2023-02-11T03:45:05;23.08;;;11.07;;
55372;SDS011;41249;47.838;16.490;2023-02-11T03:47:35;22.15;;;10.40;;
55372;SDS011;41249;47.838;16.490;2023-02-11T03:50:05;20.90;;;10.30;;
55372;SDS011;41249;47.838;16.490;2023-02-11T03:52:34;12.75;;;5.63;;
55372;SDS011;41249;47.838;16.490;2023-02-11T03:55:05;22.27;;;10.85;;
55372;SDS011;41249;47.838;16.490;2023-02-11T03:57:36;17.90;;;9.18;;
55372;SDS011;41249;47.838;16.490;2023-02-11T04:00:03;14.40;;;6.45;;
55372;SDS011;41249;47.838;16.490;2023-02-11T04:02:33;21.05;;;10.15;;
55372;SDS011;41249;47.838;16.490;2023-02-11T04:05:01;19.83;;;9.68;;
55372;SDS011;41249;47.838;16.490;2023-02-11T04:07:28;10.70;;;5.88;;
55372;SDS011;41249;47.838;16.490;2023-02-11T04:09:55;18.08;;;9.90;;
55372;SDS011;41249;47.838;16.490;2023-02-11T04:12:21;16.50;;;8.63;;
55372;SDS011;41249;47.838;16.490;2023-02-11T04:14:48;15.25;;;7.13;;
55372;SDS011;41249;47.838;16.490;2023-02-11T04:17:15;15.65;;;6.68;;
55372;SDS011;41249;47.838;16.490;2023-02-11T04:19:42;17.65;;;9.95;;
55372;SDS011;41249;47.838;16.490;2023-02-11T04:22:08;21.05;;;9.50;;
55372;SDS011;41249;47.838;16.490;2023-02-11T04:24:35;20.05;;;10.45;;
55372;SDS011;41249;47.838;16.490;2023-02-11T04:27:01;20.08;;;10.00;;
55372;SDS011;41249;47.838;16.490;2023-02-11T04:29:28;16.52;;;7.75;;
55372;SDS011;41249;47.838;16.490;2023-02-11T04:31:55;22.45;;;10.63;;
55372;SDS011;41249;47.838;16.490;2023-02-11T04:34:22;23.70;;;9.65;;
55372;SDS011;41249;47.838;16.490;2023-02-11T04:36:49;21.90;;;10.02;;
55372;SDS011;41249;47.838;16.490;2023-02-11T04:39:16;21.35;;;11.32;;
55372;SDS011;41249;47.838;16.490;2023-02-11T04:41:43;18.88;;;9.32;;
55372;SDS011;41249;47.838;16.490;2023-02-11T04:44:09;20.27;;;9.48;;
55372;SDS011;41249;47.838;16.490;2023-02-11T04:46:36;22.60;;;10.10;;
55372;SDS011;41249;47.838;16.490;2023-02-11T04:49:02;17.88;;;10.10;;
55372;SDS011;41249;47.838;16.490;2023-02-11T04:51:29;21.25;;;9.95;;
55372;SDS011;41249;47.838;16.490;2023-02-11T04:53:56;14.68;;;6.07;;
55372;SDS011;41249;47.838;16.490;2023-02-11T04:56:22;26.27;;;8.90;;
55372;SDS011;41249;47.838;16.490;2023-02-11T04:58:49;18.30;;;9.30;;
55372;SDS011;41249;47.838;16.490;2023-02-11T05:01:16;19.65;;;10.45;;
55372;SDS011;41249;47.838;16.490;2023-02-11T05:03:43;21.33;;;10.05;;
55372;SDS011;41249;47.838;16.490;2023-02-11T05:06:10;19.38;;;8.95;;
55372;SDS011;41249;47.838;16.490;2023-02-11T05:08:37;18.10;;;6.95;;
55372;SDS011;41249;47.838;16.490;2023-02-11T05:11:05;25.38;;;9.88;;
55372;SDS011;41249;47.838;16.490;2023-02-11T05:13:31;21.55;;;8.82;;
55372;SDS011;41249;47.838;16.490;2023-02-11T05:15:58;11.98;;;6.13;;
55372;SDS011;41249;47.838;16.490;2023-02-11T05:18:25;22.92;;;11.55;;
55372;SDS011;41249;47.838;16.490;2023-02-11T05:20:51;19.60;;;11.45;;
55372;SDS011;41249;47.838;16.490;2023-02-11T05:23:18;17.83;;;8.32;;
55372;SDS011;41249;47.838;16.490;2023-02-11T05:25:45;22.85;;;9.95;;
55372;SDS011;41249;47.838;16.490;2023-02-11T05:28:11;12.63;;;6.03;;
55372;SDS011;41249;47.838;16.490;2023-02-11T05:30:38;21.00;;;11.07;;
55372;SDS011;41249;47.838;16.490;2023-02-11T05:33:05;17.17;;;9.15;;
55372;SDS011;41249;47.838;16.490;2023-02-11T05:35:31;17.45;;;9.27;;
55372;SDS011;41249;47.838;16.490;2023-02-11T05:37:58;17.08;;;9.18;;
55372;SDS011;41249;47.838;16.490;2023-02-11T05:40:24;18.67;;;9.68;;
55372;SDS011;41249;47.838;16.490;2023-02-11T05:42:51;20.98;;;10.50;;
55372;SDS011;41249;47.838;16.490;2023-02-11T05:45:17;18.02;;;8.50;;
55372;SDS011;41249;47.838;16.490;2023-02-11T05:47:44;18.60;;;8.50;;
55372;SDS011;41249;47.838;16.490;2023-02-11T05:50:11;21.83;;;10.30;;
55372;SDS011;41249;47.838;16.490;2023-02-11T05:52:37;15.95;;;8.45;;
55372;SDS011;41249;47.838;16.490;2023-02-11T05:55:04;13.82;;;6.05;;
55372;SDS011;41249;47.838;16.490;2023-02-11T05:57:31;20.33;;;9.68;;
55372;SDS011;41249;47.838;16.490;2023-02-11T05:59:58;21.65;;;9.68;;
55372;SDS011;41249;47.838;16.490;2023-02-11T06:02:24;17.20;;;6.75;;
55372;SDS011;41249;47.838;16.490;2023-02-11T06:04:51;15.05;;;6.57;;
55372;SDS011;41249;47.838;16.490;2023-02-11T06:07:17;21.40;;;9.80;;
55372;SDS011;41249;47.838;16.490;2023-02-11T06:09:46;17.95;;;9.27;;
55372;SDS011;41249;47.838;16.490;2023-02-11T06:12:12;11.27;;;5.95;;
55372;SDS011;41249;47.838;16.490;2023-02-11T06:14:39;16.50;;;8.27;;
55372;SDS011;41249;47.838;16.490;2023-02-11T06:17:05;17.13;;;7.60;;
55372;SDS011;41249;47.838;16.490;2023-02-11T06:19:32;19.38;;;8.68;;
55372;SDS011;41249;47.838;16.490;2023-02-11T06:21:59;20.75;;;10.13;;
55372;SDS011;41249;47.838;16.490;2023-02-11T06:24:26;12.45;;;6.55;;
55372;SDS011;41249;47.838;16.490;2023-02-11T06:27:12;18.92;;;9.27;;
55372;SDS011;41249;47.838;16.490;2023-02-11T06:29:39;16.42;;;8.55;;
55372;SDS011;41249;47.838;16.490;2023-02-11T06:32:05;20.52;;;8.55;;
55372;SDS011;41249;47.838;16.490;2023-02-11T06:34:41;10.35;;;5.32;;
55372;SDS011;41249;47.838;16.490;2023-02-11T06:37:07;16.55;;;6.50;;
55372;SDS011;41249;47.838;16.490;2023-02-11T06:39:34;20.95;;;10.35;;
55372;SDS011;41249;47.838;16.490;2023-02-11T06:42:00;18.20;;;9.63;;
55372;SDS011;41249;47.838;16.490;2023-02-11T06:44:27;21.10;;;10.57;;
55372;SDS011;41249;47.838;16.490;2023-02-11T06:46:53;27.23;;;10.20;;
55372;SDS011;41249;47.838;16.490;2023-02-11T06:49:20;19.73;;;9.63;;
55372;SDS011;41249;47.838;16.490;2023-02-11T06:51:47;19.73;;;9.95;;
55372;SDS011;41249;47.838;16.490;2023-02-11T06:54:13;16.27;;;8.10;;
55372;SDS011;41249;47.838;16.490;2023-02-11T06:56:40;25.02;;;11.15;;
55372;SDS011;41249;47.838;16.490;2023-02-11T06:59:07;31.52;;;16.75;;
55372;SDS011;41249;47.838;16.490;2023-02-11T07:01:34;21.25;;;11.00;;
55372;SDS011;41249;47.838;16.490;2023-02-11T07:04:00;18.48;;;9.07;;
55372;SDS011;41249;47.838;16.490;2023-02-11T07:06:27;18.95;;;7.88;;
55372;SDS011;41249;47.838;16.490;2023-02-11T07:08:54;21.60;;;8.57;;
55372;SDS011;41249;47.838;16.490;2023-02-11T07:11:22;20.27;;;9.98;;
55372;SDS011;41249;47.838;16.490;2023-02-11T07:13:51;30.30;;;14.07;;
55372;SDS011;41249;47.838;16.490;2023-02-11T07:16:19;20.27;;;9.00;;
55372;SDS011;41249;47.838;16.490;2023-02-11T07:18:46;23.10;;;9.85;;
55372;SDS011;41249;47.838;16.490;2023-02-11T07:21:15;15.73;;;7.72;;
55372;SDS011;41249;47.838;16.490;2023-02-11T07:23:44;17.38;;;8.23;;
55372;SDS011;41249;47.838;16.490;2023-02-11T07:26:12;15.15;;;6.95;;
55372;SDS011;41249;47.838;16.490;2023-02-11T07:28:41;16.92;;;7.13;;
55372;SDS011;41249;47.838;16.490;2023-02-11T07:31:12;13.88;;;6.25;;
55372;SDS011;41249;47.838;16.490;2023-02-11T07:33:44;33.63;;;14.60;;
55372;SDS011;41249;47.838;16.490;2023-02-11T07:36:14;21.38;;;10.35;;
55372;SDS011;41249;47.838;16.490;2023-02-11T07:38:41;13.88;;;7.00;;
55372;SDS011;41249;47.838;16.490;2023-02-11T07:41:09;17.23;;;8.75;;
55372;SDS011;41249;47.838;16.490;2023-02-11T07:43:38;19.27;;;9.23;;
55372;SDS011;41249;47.838;16.490;2023-02-11T07:46:06;14.23;;;7.80;;
55372;SDS011;41249;47.838;16.490;2023-02-11T07:48:35;25.85;;;12.00;;
55372;SDS011;41249;47.838;16.490;2023-02-11T07:51:06;22.20;;;9.55;;
55372;SDS011;41249;47.838;16.490;2023-02-11T07:53:39;18.92;;;8.80;;
55372;SDS011;41249;47.838;16.490;2023-02-11T07:56:06;24.08;;;11.25;;
55372;SDS011;41249;47.838;16.490;2023-02-11T07:58:33;17.73;;;8.38;;
55372;SDS011;41249;47.838;16.490;2023-02-11T08:01:04;21.02;;;10.52;;
55372;SDS011;41249;47.838;16.490;2023-02-11T08:03:32;16.52;;;8.95;;
55372;SDS011;41249;47.838;16.490;2023-02-11T08:06:07;19.50;;;7.72;;
55372;SDS011;41249;47.838;16.490;2023-02-11T08:08:38;18.42;;;9.02;;
55372;SDS011;41249;47.838;16.490;2023-02-11T08:11:09;14.98;;;8.05;;
55372;SDS011;41249;47.838;16.490;2023-02-11T08:13:38;15.27;;;7.45;;
55372;SDS011;41249;47.838;16.490;2023-02-11T08:16:05;16.42;;;9.25;;
55372;SDS011;41249;47.838;16.490;2023-02-11T08:18:33;16.05;;;8.18;;
55372;SDS011;41249;47.838;16.490;2023-02-11T08:21:04;15.05;;;7.25;;
55372;SDS011;41249;47.838;16.490;2023-02-11T08:23:32;20.63;;;10.65;;
55372;SDS011;41249;47.838;16.490;2023-02-11T08:26:07;18.75;;;8.77;;
55372;SDS011;41249;47.838;16.490;2023-02-11T08:28:38;18.90;;;9.63;;
55372;SDS011;41249;47.838;16.490;2023-02-11T08:31:10;21.85;;;11.10;;
55372;SDS011;41249;47.838;16.490;2023-02-11T08:33:39;19.97;;;10.30;;
55372;SDS011;41249;47.838;16.490;2023-02-11T08:36:07;17.17;;;9.50;;
55372;SDS011;41249;47.838;16.490;2023-02-11T08:38:42;20.75;;;10.80;;
55372;SDS011;41249;47.838;16.490;2023-02-11T08:41:09;23.20;;;9.82;;
55372;SDS011;41249;47.838;16.490;2023-02-11T08:43:36;19.85;;;9.95;;
55372;SDS011;41249;47.838;16.490;2023-02-11T08:46:07;19.10;;;7.93;;
55372;SDS011;41249;47.838;16.490;2023-02-11T08:48:35;19.15;;;10.23;;
55372;SDS011;41249;47.838;16.490;2023-02-11T08:51:05;20.73;;;10.38;;
55372;SDS011;41249;47.838;16.490;2023-02-11T08:53:36;17.75;;;10.13;;
55372;SDS011;41249;47.838;16.490;2023-02-11T08:56:04;20.73;;;11.60;;
55372;SDS011;41249;47.838;16.490;2023-02-11T08:58:31;23.17;;;12.13;;
55372;SDS011;41249;47.838;16.490;2023-02-11T09:00:58;16.63;;;9.27;;
55372;SDS011;41249;47.838;16.490;2023-02-11T09:03:25;17.80;;;8.70;;
55372;SDS011;41249;47.838;16.490;2023-02-11T09:05:51;17.80;;;8.20;;
55372;SDS011;41249;47.838;16.490;2023-02-11T09:08:19;13.88;;;8.18;;
55372;SDS011;41249;47.838;16.490;2023-02-11T09:10:46;19.08;;;10.43;;
55372;SDS011;41249;47.838;16.490;2023-02-11T09:13:13;14.02;;;9.05;;
55372;SDS011;41249;47.838;16.490;2023-02-11T09:15:39;23.88;;;12.65;;
55372;SDS011;41249;47.838;16.490;2023-02-11T09:18:10;25.27;;;13.05;;
55372;SDS011;41249;47.838;16.490;2023-02-11T09:20:37;21.15;;;10.95;;
55372;SDS011;41249;47.838;16.490;2023-02-11T09:23:03;17.30;;;9.05;;
55372;SDS011;41249;47.838;16.490;2023-02-11T09:25:30;20.92;;;11.60;;
55372;SDS011;41249;47.838;16.490;2023-02-11T09:27:57;19.20;;;10.13;;
55372;SDS011;41249;47.838;16.490;2023-02-11T09:30:23;20.52;;;9.82;;
55372;SDS011;41249;47.838;16.490;2023-02-11T09:32:50;17.05;;;9.55;;
55372;SDS011;41249;47.838;16.490;2023-02-11T09:35:16;15.27;;;8.23;;
55372;SDS011;41249;47.838;16.490;2023-02-11T09:37:43;18.77;;;10.10;;
55372;SDS011;41249;47.838;16.490;2023-02-11T09:40:10;18.75;;;10.07;;
55372;SDS011;41249;47.838;16.490;2023-02-11T09:42:45;16.15;;;9.38;;
55372;SDS011;41249;47.838;16.490;2023-02-11T09:45:23;13.80;;;6.85;;
55372;SDS011;41249;47.838;16.490;2023-02-11T09:47:56;17.83;;;8.30;;
55372;SDS011;41249;47.838;16.490;2023-02-11T09:53:00;23.58;;;7.72;;
55372;SDS011;41249;47.838;16.490;2023-02-11T09:55:32;19.90;;;9.00;;
55372;SDS011;41249;47.838;16.490;2023-02-11T09:58:04;27.50;;;10.95;;
55372;SDS011;41249;47.838;16.490;2023-02-11T10:00:42;19.45;;;8.32;;
55372;SDS011;41249;47.838;16.490;2023-02-11T10:17:20;18.13;;;8.98;;
55372;SDS011;41249;47.838;16.490;2023-02-11T10:22:51;16.58;;;9.15;;
55372;SDS011;41249;47.838;16.490;2023-02-11T10:25:23;16.33;;;8.13;;
55372;SDS011;41249;47.838;16.490;2023-02-11T10:27:53;13.77;;;8.00;;
55372;SDS011;41249;47.838;16.490;2023-02-11T10:30:25;15.32;;;8.48;;
55372;SDS011;41249;47.838;16.490;2023-02-11T10:33:01;18.73;;;9.85;;
55372;SDS011;41249;47.838;16.490;2023-02-11T10:35:29;13.77;;;8.63;;
55372;SDS011;41249;47.838;16.490;2023-02-11T10:37:57;20.95;;;8.73;;
55372;SDS011;41249;47.838;16.490;2023-02-11T10:40:25;18.50;;;9.27;;
55372;SDS011;41249;47.838;16.490;2023-02-11T10:42:56;14.70;;;7.20;;
55372;SDS011;41249;47.838;16.490;2023-02-11T10:47:52;18.83;;;9.18;;
55372;SDS011;41249;47.838;16.490;2023-02-11T10:50:30;19.02;;;9.88;;
55372;SDS011;41249;47.838;16.490;2023-02-11T10:53:15;16.90;;;8.90;;
55372;SDS011;41249;47.838;16.490;2023-02-11T10:55:53;23.23;;;8.80;;
55372;SDS011;41249;47.838;16.490;2023-02-11T10:58:23;13.00;;;6.43;;
55372;SDS011;41249;47.838;16.490;2023-02-11T11:00:56;20.60;;;6.65;;
55372;SDS011;41249;47.838;16.490;2023-02-11T11:03:26;13.30;;;6.07;;
55372;SDS011;41249;47.838;16.490;2023-02-11T11:06:06;18.70;;;7.88;;
55372;SDS011;41249;47.838;16.490;2023-02-11T11:08:42;12.02;;;7.18;;
55372;SDS011;41249;47.838;16.490;2023-02-11T11:11:15;12.68;;;6.03;;
55372;SDS011;41249;47.838;16.490;2023-02-11T11:16:40;10.85;;;5.45;;
55372;SDS011;41249;47.838;16.490;2023-02-11T11:19:23;13.57;;;7.13;;
55372;SDS011;41249;47.838;16.490;2023-02-11T11:21:51;10.45;;;5.47;;
55372;SDS011;41249;47.838;16.490;2023-02-11T11:26:58;10.52;;;5.68;;
55372;SDS011;41249;47.838;16.490;2023-02-11T11:32:05;11.68;;;5.50;;
55372;SDS011;41249;47.838;16.490;2023-02-11T11:34:49;10.38;;;4.70;;
55372;SDS011;41249;47.838;16.490;2023-02-11T11:37:20;13.05;;;5.55;;
55372;SDS011;41249;47.838;16.490;2023-02-11T11:42:35;9.82;;;4.82;;
55372;SDS011;41249;47.838;16.490;2023-02-11T11:47:57;16.90;;;7.82;;
55372;SDS011;41249;47.838;16.490;2023-02-11T11:53:10;8.95;;;4.80;;
55372;SDS011;41249;47.838;16.490;2023-02-11T11:55:47;9.52;;;4.75;;
55372;SDS011;41249;47.838;16.490;2023-02-11T11:58:21;13.18;;;5.70;;
55372;SDS011;41249;47.838;16.490;2023-02-11T12:06:15;8.77;;;4.70;;
55372;SDS011;41249;47.838;16.490;2023-02-11T12:09:44;7.20;;;4.63;;
55372;SDS011;41249;47.838;16.490;2023-02-11T12:11:52;8.45;;;4.90;;
55372;SDS011;41249;47.838;16.490;2023-02-11T12:20:54;8.27;;;5.38;;
55372;SDS011;41249;47.838;16.490;2023-02-11T12:23:31;11.52;;;5.68;;
55372;SDS011;41249;47.838;16.490;2023-02-11T12:31:26;10.05;;;6.15;;
55372;SDS011;41249;47.838;16.490;2023-02-11T12:34:11;17.83;;;6.35;;
55372;SDS011;41249;47.838;16.490;2023-02-11T12:36:46;10.05;;;5.85;;
55372;SDS011;41249;47.838;16.490;2023-02-11T12:39:24;9.43;;;5.43;;
55372;SDS011;41249;47.838;16.490;2023-02-11T12:50:55;9.43;;;5.05;;
55372;SDS011;41249;47.838;16.490;2023-02-11T12:56:24;11.35;;;5.68;;
55372;SDS011;41249;47.838;16.490;2023-02-11T12:58:56;11.15;;;5.30;;
55372;SDS011;41249;47.838;16.490;2023-02-11T13:01:26;10.65;;;6.22;;
55372;SDS011;41249;47.838;16.490;2023-02-11T13:04:03;13.52;;;7.05;;
55372;SDS011;41249;47.838;16.490;2023-02-11T13:06:43;11.45;;;5.75;;
55372;SDS011;41249;47.838;16.490;2023-02-11T13:09:16;10.60;;;5.22;;
55372;SDS011;41249;47.838;16.490;2023-02-11T13:11:48;13.23;;;6.75;;
55372;SDS011;41249;47.838;16.490;2023-02-11T13:17:00;10.18;;;5.72;;
55372;SDS011;41249;47.838;16.490;2023-02-11T13:19:43;15.00;;;6.88;;
55372;SDS011;41249;47.838;16.490;2023-02-11T13:27:42;14.18;;;7.80;;
55372;SDS011;41249;47.838;16.490;2023-02-11T13:35:40;13.32;;;6.28;;
55372;SDS011;41249;47.838;16.490;2023-02-11T13:38:23;16.83;;;6.47;;
55372;SDS011;41249;47.838;16.490;2023-02-11T13:43:28;14.82;;;6.32;;
55372;SDS011;41249;47.838;16.490;2023-02-11T13:48:45;8.25;;;4.15;;
55372;SDS011;41249;47.838;16.490;2023-02-11T13:51:15;10.15;;;5.55;;
55372;SDS011;41249;47.838;16.490;2023-02-11T13:53:51;10.15;;;4.97;;
55372;SDS011;41249;47.838;16.490;2023-02-11T13:58:56;12.88;;;5.72;;
55372;SDS011;41249;47.838;16.490;2023-02-11T14:04:32;12.68;;;6.15;;
55372;SDS011;41249;47.838;16.490;2023-02-11T14:07:28;10.45;;;5.07;;
55372;SDS011;41249;47.838;16.490;2023-02-11T14:16:09;14.32;;;7.28;;
55372;SDS011;41249;47.838;16.490;2023-02-11T14:21:29;13.93;;;6.22;;
55372;SDS011;41249;47.838;16.490;2023-02-11T14:29:22;11.05;;;4.97;;
55372;SDS011;41249;47.838;16.490;2023-02-11T14:42:43;10.23;;;5.47;;
55372;SDS011;41249;47.838;16.490;2023-02-11T14:45:13;12.60;;;5.97;;
55372;SDS011;41249;47.838;16.490;2023-02-11T14:47:50;13.65;;;7.18;;
55372;SDS011;41249;47.838;16.490;2023-02-11T14:50:39;12.90;;;6.63;;
55372;SDS011;41249;47.838;16.490;2023-02-11T14:53:20;13.40;;;6.97;;
55372;SDS011;41249;47.838;16.490;2023-02-11T14:55:50;9.23;;;5.05;;
55372;SDS011;41249;47.838;16.490;2023-02-11T14:58:19;6.63;;;3.13;;
55372;SDS011;41249;47.838;16.490;2023-02-11T15:00:59;8.95;;;4.28;;
55372;SDS011;41249;47.838;16.490;2023-02-11T15:03:35;11.77;;;6.25;;
55372;SDS011;41249;47.838;16.490;2023-02-11T15:08:40;15.48;;;8.10;;
55372;SDS011;41249;47.838;16.490;2023-02-11T15:11:11;10.52;;;5.32;;
55372;SDS011;41249;47.838;16.490;2023-02-11T15:13:40;12.00;;;6.30;;
55372;SDS011;41249;47.838;16.490;2023-02-11T15:16:15;12.23;;;4.35;;
55372;SDS011;41249;47.838;16.490;2023-02-11T15:18:47;8.80;;;3.88;;
55372;SDS011;41249;47.838;16.490;2023-02-11T15:21:20;6.10;;;4.03;;
55372;SDS011;41249;47.838;16.490;2023-02-11T15:26:22;7.53;;;3.42;;
55372;SDS011;41249;47.838;16.490;2023-02-11T15:28:48;7.68;;;3.80;;
55372;SDS011;41249;47.838;16.490;2023-02-11T15:31:18;6.55;;;3.83;;
55372;SDS011;41249;47.838;16.490;2023-02-11T15:33:46;9.25;;;4.60;;
55372;SDS011;41249;47.838;16.490;2023-02-11T15:36:14;6.63;;;3.63;;
55372;SDS011;41249;47.838;16.490;2023-02-11T15:38:41;8.43;;;4.47;;
55372;SDS011;41249;47.838;16.490;2023-02-11T15:41:34;7.15;;;3.42;;
55372;SDS011;41249;47.838;16.490;2023-02-11T15:43:59;8.57;;;3.92;;
55372;SDS011;41249;47.838;16.490;2023-02-11T15:46:28;10.05;;;4.97;;
55372;SDS011;41249;47.838;16.490;2023-02-11T15:49:01;8.05;;;4.50;;
55372;SDS011;41249;47.838;16.490;2023-02-11T15:51:30;9.30;;;4.75;;
55372;SDS011;41249;47.838;16.490;2023-02-11T15:54:04;12.95;;;5.45;;
55372;SDS011;41249;47.838;16.490;2023-02-11T15:56:40;11.35;;;4.60;;
55372;SDS011;41249;47.838;16.490;2023-02-11T16:01:49;12.30;;;6.20;;
55372;SDS011;41249;47.838;16.490;2023-02-11T16:04:16;13.43;;;5.55;;
55372;SDS011;41249;47.838;16.490;2023-02-11T16:06:46;12.43;;;5.90;;
55372;SDS011;41249;47.838;16.490;2023-02-11T16:12:01;11.65;;;4.85;;
55372;SDS011;41249;47.838;16.490;2023-02-11T16:14:44;10.65;;;5.05;;
55372;SDS011;41249;47.838;16.490;2023-02-11T16:17:26;11.35;;;5.57;;
55372;SDS011;41249;47.838;16.490;2023-02-11T16:19:54;10.90;;;4.93;;
55372;SDS011;41249;47.838;16.490;2023-02-11T16:22:22;13.43;;;4.65;;
55372;SDS011;41249;47.838;16.490;2023-02-11T16:24:52;9.73;;;4.75;;
55372;SDS011;41249;47.838;16.490;2023-02-11T16:27:26;11.52;;;5.13;;
55372;SDS011;41249;47.838;16.490;2023-02-11T16:29:57;13.18;;;5.82;;
55372;SDS011;41249;47.838;16.490;2023-02-11T16:32:27;13.02;;;5.22;;
55372;SDS011;41249;47.838;16.490;2023-02-11T16:34:56;12.73;;;5.45;;
55372;SDS011;41249;47.838;16.490;2023-02-11T16:37:24;10.95;;;4.93;;
55372;SDS011;41249;47.838;16.490;2023-02-11T16:39:52;9.88;;;5.18;;
55372;SDS011;41249;47.838;16.490;2023-02-11T16:42:19;13.75;;;5.28;;
55372;SDS011;41249;47.838;16.490;2023-02-11T16:44:46;10.75;;;5.10;;
55372;SDS011;41249;47.838;16.490;2023-02-11T16:47:21;12.13;;;4.85;;
55372;SDS011;41249;47.838;16.490;2023-02-11T16:49:49;11.30;;;5.65;;
55372;SDS011;41249;47.838;16.490;2023-02-11T16:52:16;11.70;;;5.10;;
55372;SDS011;41249;47.838;16.490;2023-02-11T16:54:45;9.07;;;4.60;;
55372;SDS011;41249;47.838;16.490;2023-02-11T16:57:15;11.73;;;5.53;;
55372;SDS011;41249;47.838;16.490;2023-02-11T16:59:44;12.65;;;5.38;;
55372;SDS011;41249;47.838;16.490;2023-02-11T17:02:25;9.40;;;4.80;;
55372;SDS011;41249;47.838;16.490;2023-02-11T17:04:54;10.75;;;4.97;;
55372;SDS011;41249;47.838;16.490;2023-02-11T17:07:24;8.00;;;4.60;;
55372;SDS011;41249;47.838;16.490;2023-02-11T17:09:51;12.50;;;5.03;;
55372;SDS011;41249;47.838;16.490;2023-02-11T17:12:18;10.93;;;4.50;;
55372;SDS011;41249;47.838;16.490;2023-02-11T17:14:46;24.63;;;9.77;;
55372;SDS011;41249;47.838;16.490;2023-02-11T17:17:12;9.32;;;4.32;;